Time;durP1;ratioP1;P1;durP2;ratioP2;P2;SDS_P1;SDS_P2;PMS_P1;PMS_P2;Temp;Humidity;BMP_temperature;BMP_pressure;BME280_temperature;BME280_humidity;BME280_pressure;Samples;Min_cycle;Max_cycle;Signal;HPM_P1;HPM_P2
2021/08/27 00:01:22;;;;;;;;;;;;;;;12.86;97.87;98795.63;5110234;28;19928;-78
2021/08/27 00:03:49;;;;;;;;;;;;;;;12.89;97.53;98787.00;5109311;28;19930;-78
2021/08/27 00:06:16;;;;;;;;;;;;;;;12.91;96.60;98789.53;5113484;27;19920;-78
2021/08/27 00:08:43;;;;;;;;;;;;;;;12.95;95.76;98793.53;5111523;27;19927;-78
2021/08/27 00:11:10;;;;;;;;;;;;;;;13.00;95.19;98792.91;5110622;28;20389;-78
2021/08/27 00:13:36;;;;;;;;;;;;;;;13.03;95.52;98795.19;5108722;28;19924;-78
2021/08/27 00:16:03;;;;;;;;;;;;;;;13.10;95.42;98783.22;5113842;27;20259;-78
2021/08/27 00:18:30;;;;;;;;;;;;;;;13.03;95.26;98792.47;5108894;27;20031;-78
2021/08/27 00:21:07;;;;;;;;;;;;;;;13.04;95.64;98791.44;5106000;27;20634;-78
2021/08/27 00:23:34;;;;;;;;;;;;;;;13.02;95.24;98783.47;5109817;27;20295;-78
2021/08/27 00:26:00;;;;;;;;;;;;;;;13.09;95.19;98797.09;5111190;27;19943;-78
2021/08/27 00:28:27;;;;;;;;;;;;;;;13.06;94.96;98798.34;5111144;28;19920;-78
2021/08/27 00:31:05;;;;;;;;;;;;;;;13.04;95.86;98800.44;5112240;27;20374;-78
2021/08/27 00:33:42;;;;;;;;;;;;;;;12.90;96.78;98801.47;5111889;28;19970;-78
2021/08/27 00:36:12;;;;;;;;;;;;;;;12.92;97.00;98810.31;5109151;27;20366;-79
2021/08/27 00:38:59;;;;;;;;;;;;;;;12.90;96.94;98810.53;5109259;27;20014;-79
2021/08/27 00:41:51;;;;;;;;;;;;;;;;;;;;;
2021/08/27 00:44:29;;;;;;;;;;;;;;;12.84;98.02;98810.50;5107989;28;19928;-78
2021/08/27 00:46:59;;;;;;;;;;;;;;;12.84;97.70;98811.34;5106745;28;19928;-79
2021/08/27 00:49:26;;;;;;;;;;;;;;;12.92;97.66;98810.31;5109647;28;19920;-78
2021/08/27 00:51:54;;;;;;;;;;;;;;;12.94;97.54;98805.47;5106629;27;20009;-78
2021/08/27 00:54:23;;;;;;;;;;;;;;;12.88;98.23;98814.50;5106781;27;20271;-78
2021/08/27 00:56:53;;;;;;;;;;;;;;;12.87;99.39;98810.09;5107138;27;19927;-79
2021/08/27 00:59:23;;;;;;;;;;;;;;;12.88;99.63;98818.06;5103658;28;20006;-79
2021/08/27 01:01:53;;;;;;;;;;;;;;;12.89;100.00;98814.28;5103830;28;19939;-79
2021/08/27 01:04:20;;;;;;;;;;;;;;;12.87;100.00;98812.81;5107818;27;19926;-79
2021/08/27 01:07:01;;;;;;;;;;;;;;;12.78;100.00;98812.19;5106748;27;19927;-79
2021/08/27 01:09:31;;;;;;;;;;;;;;;12.73;100.00;98804.59;5101387;28;19923;-79
2021/08/27 01:12:02;;;;;;;;;;;;;;;12.66;100.00;98811.97;5107490;27;20371;-79
2021/08/27 01:14:31;;;;;;;;;;;;;;;12.70;100.00;98813.22;5111861;27;19966;-79
2021/08/27 01:16:59;;;;;;;;;;;;;;;12.63;100.00;98809.66;5104331;28;20014;-79
2021/08/27 01:19:35;;;;;;;;;;;;;;;12.65;100.00;98815.72;5107158;28;20021;-79
2021/08/27 01:22:12;;;;;;;;;;;;;;;12.73;100.00;98823.69;5107679;28;19926;-79
2021/08/27 01:24:41;;;;;;;;;;;;;;;12.74;100.00;98822.66;5109297;28;19973;-79
2021/08/27 01:27:11;;;;;;;;;;;;;;;12.67;100.00;98816.34;5109322;28;20375;-79
2021/08/27 01:29:43;;;;;;;;;;;;;;;12.68;100.00;98815.31;5114116;27;19966;-79
2021/08/27 01:32:11;;;;;;;;;;;;;;;12.68;100.00;98815.31;5112329;27;19919;-79
2021/08/27 01:34:40;;;;;;;;;;;;;;;12.78;100.00;98814.06;5101514;27;20317;-79
2021/08/27 01:37:09;;;;;;;;;;;;;;;12.72;100.00;98819.31;5106510;27;19919;-78
2021/08/27 01:39:38;;;;;;;;;;;;;;;12.78;100.00;98814.91;5106176;28;20022;-78
2021/08/27 01:42:06;;;;;;;;;;;;;;;12.78;100.00;98814.06;5110724;27;21196;-79
2021/08/27 01:44:33;;;;;;;;;;;;;;;12.73;100.00;98822.88;5106304;28;19930;-79
2021/08/27 01:47:01;;;;;;;;;;;;;;;12.71;100.00;98825.81;5112084;28;19920;-79
2021/08/27 01:49:29;;;;;;;;;;;;;;;12.80;100.00;98821.00;5109880;28;20309;-79
2021/08/27 01:51:58;;;;;;;;;;;;;;;12.83;100.00;98814.28;5108444;28;19920;-79
2021/08/27 01:54:24;;;;;;;;;;;;;;;12.80;100.00;98806.53;5108086;28;19955;-79
2021/08/27 01:56:54;;;;;;;;;;;;;;;12.77;100.00;98809.66;5108413;28;19919;-79
2021/08/27 01:59:22;;;;;;;;;;;;;;;12.73;100.00;98814.69;5112461;28;19973;-79
2021/08/27 02:01:48;;;;;;;;;;;;;;;12.80;100.00;98817.44;5125252;27;19923;-79
2021/08/27 02:04:16;;;;;;;;;;;;;;;12.81;100.00;98819.09;5115288;27;20002;-79
2021/08/27 02:06:46;;;;;;;;;;;;;;;12.80;100.00;98815.53;5115039;27;19926;-79
2021/08/27 02:09:17;;;;;;;;;;;;;;;12.82;100.00;98820.78;5111293;27;19970;-79
2021/08/27 02:11:45;;;;;;;;;;;;;;;12.85;100.00;98826.66;5115028;28;19926;-79
2021/08/27 02:14:11;;;;;;;;;;;;;;;12.91;100.00;98820.38;5110052;27;19923;-79
2021/08/27 02:16:38;;;;;;;;;;;;;;;12.91;100.00;98820.38;5110520;27;19963;-78
2021/08/27 02:19:07;;;;;;;;;;;;;;;12.82;100.00;98816.16;5110019;27;19927;-79
2021/08/27 02:21:40;;;;;;;;;;;;;;;12.83;100.00;98812.41;5106830;27;20010;-79
2021/08/27 02:24:08;;;;;;;;;;;;;;;12.84;100.00;98808.63;5111731;27;19977;-79
2021/08/27 02:26:36;;;;;;;;;;;;;;;12.85;100.00;98815.75;5109819;27;19919;-78
2021/08/27 02:29:03;;;;;;;;;;;;;;;12.81;100.00;98822.69;5118353;27;19974;-79
2021/08/27 02:31:32;;;;;;;;;;;;;;;12.87;100.00;98812.81;5114225;27;19919;-79
2021/08/27 02:33:59;;;;;;;;;;;;;;;12.90;100.00;98815.13;5114362;27;20345;-79
2021/08/27 02:36:26;;;;;;;;;;;;;;;12.78;100.00;98816.78;5117118;27;19923;-79
2021/08/27 02:38:53;;;;;;;;;;;;;;;12.71;100.00;98817.63;5127280;27;19927;-78
2021/08/27 02:41:20;;;;;;;;;;;;;;;12.65;100.00;98814.91;5110065;27;19919;-79
2021/08/27 02:43:48;;;;;;;;;;;;;;;12.77;100.00;98807.78;5114550;27;20359;-78
2021/08/27 02:46:14;;;;;;;;;;;;;;;12.73;100.00;98806.50;5114061;28;20389;-79
2021/08/27 02:48:41;;;;;;;;;;;;;;;12.65;100.00;98804.00;5114862;27;19973;-78
2021/08/27 02:51:11;;;;;;;;;;;;;;;12.63;100.00;98804.19;5114847;27;19920;-79
2021/08/27 02:53:40;;;;;;;;;;;;;;;12.63;100.00;98809.66;5109000;28;20074;-79
2021/08/27 02:56:10;;;;;;;;;;;;;;;12.64;100.00;98813.22;5109677;27;19923;-79
2021/08/27 02:58:36;;;;;;;;;;;;;;;12.71;100.00;98803.97;5114104;28;19935;-79
2021/08/27 03:01:07;;;;;;;;;;;;;;;12.73;100.00;98812.78;5116495;27;19936;-79
2021/08/27 03:03:36;;;;;;;;;;;;;;;12.73;100.00;98812.78;5134405;27;20277;-79
2021/08/27 03:06:04;;;;;;;;;;;;;;;12.71;100.00;98824.97;5116553;27;19927;-78
2021/08/27 03:08:33;;;;;;;;;;;;;;;12.67;100.00;98821.81;5120413;27;19919;-79
2021/08/27 03:11:02;;;;;;;;;;;;;;;12.70;100.00;98820.56;5123866;27;19919;-79
2021/08/27 03:13:33;;;;;;;;;;;;;;;12.70;100.00;98820.56;5125522;27;20375;-79
2021/08/27 03:16:01;;;;;;;;;;;;;;;12.54;100.00;98819.91;5120561;27;19924;-79
2021/08/27 03:18:33;;;;;;;;;;;;;;;12.56;100.00;98812.34;5121432;27;19941;-79
2021/08/27 03:21:02;;;;;;;;;;;;;;;12.50;100.00;98812.34;5127139;27;20330;-79
2021/08/27 03:23:30;;;;;;;;;;;;;;;12.45;100.00;98815.69;5118806;27;19923;-79
2021/08/27 03:25:57;;;;;;;;;;;;;;;12.45;100.00;98807.50;5133993;27;19965;-79
2021/08/27 03:28:26;;;;;;;;;;;;;;;12.46;100.00;98808.34;5113421;27;19919;-78
2021/08/27 03:30:53;;;;;;;;;;;;;;;12.55;100.00;98804.38;5129224;27;20405;-78
2021/08/27 03:33:21;;;;;;;;;;;;;;;12.52;100.00;98797.44;5111614;27;19946;-78
2021/08/27 03:35:50;;;;;;;;;;;;;;;12.55;100.00;98799.75;5125243;27;20398;-79
2021/08/27 03:38:18;;;;;;;;;;;;;;;12.63;100.00;98798.75;5121299;27;19927;-79
2021/08/27 03:40:45;;;;;;;;;;;;;;;12.61;100.00;98802.72;5114674;27;19919;-79
2021/08/27 03:43:12;;;;;;;;;;;;;;;12.62;100.00;98804.41;5115940;27;19919;-78
2021/08/27 03:45:39;;;;;;;;;;;;;;;12.69;100.00;98814.28;5112703;27;19919;-79
2021/08/27 03:48:06;;;;;;;;;;;;;;;12.55;100.00;98820.75;5124050;27;19969;-79
2021/08/27 03:50:32;;;;;;;;;;;;;;;12.67;100.00;98813.63;5115408;27;19928;-79
2021/08/27 03:53:00;;;;;;;;;;;;;;;12.60;100.00;98820.13;5124260;27;19984;-78
2021/08/27 03:55:28;;;;;;;;;;;;;;;12.50;100.00;98815.91;5133157;27;19919;-78
2021/08/27 03:57:56;;;;;;;;;;;;;;;12.48;100.00;98819.88;5115235;27;19919;-78
2021/08/27 04:00:24;;;;;;;;;;;;;;;12.48;100.00;98819.88;5112855;27;19974;-78
2021/08/27 04:02:52;;;;;;;;;;;;;;;12.55;100.00;98810.66;5116077;27;20251;-78
2021/08/27 04:05:19;;;;;;;;;;;;;;;12.55;100.00;98816.13;5114476;27;19988;-78
2021/08/27 04:07:47;;;;;;;;;;;;;;;12.61;100.00;98819.06;5112365;27;19924;-78
2021/08/27 04:10:15;;;;;;;;;;;;;;;12.64;100.00;98811.31;5113709;27;19920;-78
2021/08/27 04:12:42;;;;;;;;;;;;;;;12.62;100.00;98812.59;5115174;27;20366;-78
2021/08/27 04:15:10;;;;;;;;;;;;;;;12.62;100.00;98823.50;5110752;28;20135;-78
2021/08/27 04:17:36;;;;;;;;;;;;;;;12.53;100.00;98820.13;5111402;27;19920;-80
2021/08/27 04:20:04;;;;;;;;;;;;;;;12.53;100.00;98814.66;5110311;27;19919;-81
2021/08/27 04:22:31;;;;;;;;;;;;;;;12.50;100.00;98815.06;5102222;27;20294;-79
2021/08/27 04:24:57;;;;;;;;;;;;;;;12.52;100.00;98810.25;5112715;27;19919;-79
2021/08/27 04:27:25;;;;;;;;;;;;;;;12.50;100.00;98815.91;5106712;28;19919;-80
2021/08/27 04:29:51;;;;;;;;;;;;;;;12.51;100.00;98814.00;5121752;27;19964;-79
2021/08/27 04:32:18;;;;;;;;;;;;;;;12.49;100.00;98821.56;5121305;27;19931;-79
2021/08/27 04:34:45;;;;;;;;;;;;;;;12.50;100.00;98823.25;5117532;27;19920;-80
2021/08/27 04:37:12;;;;;;;;;;;;;;;12.55;100.00;98824.28;5108087;27;19919;-80
2021/08/27 04:39:38;;;;;;;;;;;;;;;12.53;100.00;98836.47;5111941;28;19926;-79
2021/08/27 04:42:05;;;;;;;;;;;;;;;12.62;100.00;98834.41;5112977;27;20312;-80
2021/08/27 04:44:33;;;;;;;;;;;;;;;12.62;100.00;98845.31;5123120;27;19924;-79
2021/08/27 04:46:59;;;;;;;;;;;;;;;12.59;100.00;98848.44;5120159;27;19964;-80
2021/08/27 04:49:26;;;;;;;;;;;;;;;12.58;100.00;98847.59;5111548;28;20382;-80
2021/08/27 04:51:52;;;;;;;;;;;;;;;12.52;100.00;98851.13;5109912;27;19920;-80
2021/08/27 04:54:19;;;;;;;;;;;;;;;12.50;100.00;98856.81;5104786;27;19965;-80
2021/08/27 04:56:45;;;;;;;;;;;;;;;12.55;100.00;98861.63;5103154;28;20394;-79
2021/08/27 04:59:12;;;;;;;;;;;;;;;12.57;100.00;98865.03;5112250;27;19927;-80
2021/08/27 05:01:40;;;;;;;;;;;;;;;12.50;100.00;98862.25;5109784;28;19927;-80
2021/08/27 05:04:06;;;;;;;;;;;;;;;12.52;100.00;98870.22;5119664;27;19931;-79
2021/08/27 05:06:33;;;;;;;;;;;;;;;12.52;100.00;98872.94;5125623;27;20280;-80
2021/08/27 05:08:59;;;;;;;;;;;;;;;12.55;100.00;98876.09;5111518;28;20072;-80
2021/08/27 05:11:26;;;;;;;;;;;;;;;12.65;100.00;98870.28;5109720;28;19930;-80
2021/08/27 05:13:52;;;;;;;;;;;;;;;12.68;100.00;98871.75;5112323;27;19924;-80
2021/08/27 05:16:19;;;;;;;;;;;;;;;12.79;100.00;98873.03;5101715;27;19928;-79
2021/08/27 05:18:47;;;;;;;;;;;;;;;12.82;100.00;98881.63;5107690;28;20320;-80
2021/08/27 05:21:16;;;;;;;;;;;;;;;12.86;100.00;98880.19;5105746;27;20349;-80
2021/08/27 05:23:43;;;;;;;;;;;;;;;12.85;100.00;98873.03;5102243;27;20394;-79
2021/08/27 05:26:09;;;;;;;;;;;;;;;12.75;100.00;98883.50;5106128;27;19949;-80
2021/08/27 05:28:36;;;;;;;;;;;;;;;12.83;100.00;98877.03;5109491;28;20336;-80
2021/08/27 05:31:02;;;;;;;;;;;;;;;12.80;100.00;98882.91;5111677;27;19927;-80
2021/08/27 05:33:29;;;;;;;;;;;;;;;12.68;100.00;98885.38;5111432;28;20101;-80
2021/08/27 05:35:57;;;;;;;;;;;;;;;12.69;100.00;98887.06;5109706;28;20463;-79
2021/08/27 05:38:23;;;;;;;;;;;;;;;12.70;100.00;98875.94;5111131;28;19919;-78
2021/08/27 05:40:50;;;;;;;;;;;;;;;12.74;100.00;98892.75;5114803;28;19928;-79
2021/08/27 05:43:18;;;;;;;;;;;;;;;12.93;100.00;98888.38;5110085;28;20282;-79
2021/08/27 05:45:44;;;;;;;;;;;;;;;13.04;100.00;98884.22;5111641;28;19923;-79
2021/08/27 05:48:11;;;;;;;;;;;;;;;13.03;99.59;98888.81;5114467;28;19927;-79
2021/08/27 05:50:37;;;;;;;;;;;;;;;13.06;98.98;98893.84;5115525;28;19973;-79
2021/08/27 05:53:05;;;;;;;;;;;;;;;13.10;99.28;98894.28;5111417;28;19927;-79
2021/08/27 05:55:32;;;;;;;;;;;;;;;12.99;99.44;98897.63;5113053;28;19923;-79
2021/08/27 05:57:59;;;;;;;;;;;;;;;13.15;99.20;98899.13;5108993;28;20440;-79
2021/08/27 06:00:26;;;;;;;;;;;;;;;13.42;98.01;98898.09;5111327;28;19924;-79
2021/08/27 06:02:52;;;;;;;;;;;;;;;13.84;94.48;98899.78;5113085;28;19926;-79
2021/08/27 06:05:20;;;;;;;;;;;;;;;14.22;94.03;98893.59;5108130;28;20398;-80
2021/08/27 06:07:47;;;;;;;;;;;;;;;14.60;91.16;98896.41;5109924;28;19926;-79
2021/08/27 06:10:15;;;;;;;;;;;;;;;14.95;90.63;98900.63;5104170;28;19920;-79
2021/08/27 06:12:42;;;;;;;;;;;;;;;15.27;88.00;98896.00;5108937;28;19924;-79
2021/08/27 06:15:09;;;;;;;;;;;;;;;15.41;85.01;98894.00;5111583;28;19919;-80
2021/08/27 06:17:36;;;;;;;;;;;;;;;15.52;83.84;98890.53;5109648;28;20207;-79
2021/08/27 06:20:03;;;;;;;;;;;;;;;15.68;83.56;98896.50;5112772;28;20329;-80
2021/08/27 06:22:29;;;;;;;;;;;;;;;15.67;82.38;98900.31;5123679;28;19927;-80
2021/08/27 06:24:56;;;;;;;;;;;;;;;16.11;82.87;98895.72;5111498;28;20363;-80
2021/08/27 06:27:24;;;;;;;;;;;;;;;16.45;81.51;98891.53;5109629;28;19928;-81
2021/08/27 06:29:50;;;;;;;;;;;;;;;16.20;80.46;98902.56;5109436;28;19931;-80
2021/08/27 06:32:23;;;;;;;;;;;;;;;16.24;78.70;98900.19;5108342;28;19963;-80
2021/08/27 06:34:50;;;;;;;;;;;;;;;16.21;79.73;98904.25;5117071;28;20011;-80
2021/08/27 06:40:06;;;;;;;;;;;;;;;16.47;76.80;98915.97;5099737;28;20010;-80
2021/08/27 06:42:34;;;;;;;;;;;;;;;16.69;76.95;98919.06;5098899;28;19931;-80
2021/08/27 06:45:01;;;;;;;;;;;;;;;17.15;75.43;98917.63;5114706;27;20002;-80
2021/08/27 06:47:54;;;;;;;;;;;;;;;17.04;75.34;98923.06;5109988;27;19965;-80
2021/08/27 06:50:20;;;;;;;;;;;;;;;16.87;75.75;98920.97;5107007;27;19920;-80
2021/08/27 06:52:47;;;;;;;;;;;;;;;16.79;77.63;98929.50;5105900;27;19924;-80
2021/08/27 06:55:14;;;;;;;;;;;;;;;16.35;79.78;98929.63;5103726;27;20318;-80
2021/08/27 06:57:44;;;;;;;;;;;;;;;16.44;79.80;98938.38;5118759;27;19928;-80
2021/08/27 07:00:11;;;;;;;;;;;;;;;16.78;76.51;98936.88;5115874;27;19924;-81
2021/08/27 07:02:38;;;;;;;;;;;;;;;16.73;76.94;98933.19;5114548;27;19924;-81
2021/08/27 07:05:04;;;;;;;;;;;;;;;16.57;77.08;98931.88;5123488;27;19923;-82
2021/08/27 07:07:31;;;;;;;;;;;;;;;16.58;77.41;98934.41;5120101;27;19923;-81
2021/08/27 07:09:58;;;;;;;;;;;;;;;16.67;77.23;98934.94;5115317;28;19919;-81
2021/08/27 07:12:37;;;;;;;;;;;;;;;17.08;74.84;98925.13;5117760;27;19923;-81
2021/08/27 07:15:17;;;;;;;;;;;;;;;17.30;73.04;98930.94;5103138;27;19927;-81
2021/08/27 07:17:44;;;;;;;;;;;;;;;17.34;72.50;98934.03;5120922;27;19920;-81
2021/08/27 07:20:12;;;;;;;;;;;;;;;17.40;72.89;98929.50;5095767;28;20011;-81
2021/08/27 07:22:38;;;;;;;;;;;;;;;17.81;71.10;98923.13;5112584;27;19920;-81
2021/08/27 07:28:08;;;;;;;;;;;;;;;16.77;73.62;98937.97;5088147;22;19952;-81
2021/08/27 07:30:37;;;;;;;;;;;;;;;16.98;73.78;98938.56;5077217;28;19920;-80
2021/08/27 07:33:26;;;;;;;;;;;;;;;16.95;72.22;98948.13;5063545;28;20048;-80
2021/08/27 07:35:52;;;;;;;;;;;;;;;16.66;74.68;98943.41;5065085;28;19939;-80
2021/08/27 07:38:19;;;;;;;;;;;;;;;16.42;74.73;98937.75;5068096;28;20015;-79
2021/08/27 07:40:46;;;;;;;;;;;;;;;16.48;74.98;98936.84;5072693;28;20408;-80
2021/08/27 07:43:17;;;;;;;;;;;;;;;16.72;73.31;98939.72;5082119;28;19920;-80
2021/08/27 07:45:48;;;;;;;;;;;;;;;16.92;71.24;98942.25;5068927;28;20363;-79
2021/08/27 07:48:18;;;;;;;;;;;;;;;17.04;72.30;98936.81;5072614;28;19963;-79
2021/08/27 07:50:44;;;;;;;;;;;;;;;17.31;70.45;98946.34;5073081;28;20359;-79
2021/08/27 07:53:11;;;;;;;;;;;;;;;17.42;70.32;98952.94;5074110;28;19982;-79
2021/08/27 07:55:37;;;;;;;;;;;;;;;17.64;67.54;98946.88;5055408;28;19925;-79
2021/08/27 07:58:04;;;;;;;;;;;;;;;17.43;69.88;98945.53;5073137;28;20390;-80
2021/08/27 08:00:47;;;;;;;;;;;;;;;17.32;69.78;98948.00;5072162;28;19924;-79
2021/08/27 08:03:15;;;;;;;;;;;;;;;16.98;70.00;98952.28;5071257;28;19920;-79
2021/08/27 08:05:41;;;;;;;;;;;;;;;17.05;70.18;98957.72;5073102;28;19924;-79
2021/08/27 08:08:08;;;;;;;;;;;;;;;17.16;70.22;98963.25;5072457;28;19920;-79
2021/08/27 08:10:34;;;;;;;;;;;;;;;17.31;68.71;98962.84;5073772;28;20042;-79
2021/08/27 08:13:01;;;;;;;;;;;;;;;17.22;70.01;98955.97;5070828;28;19921;-79
2021/08/27 08:15:28;;;;;;;;;;;;;;;17.28;69.02;98949.56;5072870;28;19920;-79
2021/08/27 08:17:55;;;;;;;;;;;;;;;17.02;69.81;98950.75;5073165;28;19920;-79
2021/08/27 08:20:23;;;;;;;;;;;;;;;16.68;71.07;98954.97;5072314;28;19920;-79
2021/08/27 08:22:49;;;;;;;;;;;;;;;16.58;71.47;98953.59;5073483;28;19920;-79
2021/08/27 08:25:16;;;;;;;;;;;;;;;16.24;73.37;98960.53;5071736;28;19932;-79
2021/08/27 08:27:42;;;;;;;;;;;;;;;15.80;72.42;98965.16;5073163;28;20272;-79
2021/08/27 08:30:09;;;;;;;;;;;;;;;15.49;73.85;98964.09;5071897;28;20287;-79
2021/08/27 08:32:36;;;;;;;;;;;;;;;15.44;75.78;98961.19;5073318;28;19987;-79
2021/08/27 08:35:04;;;;;;;;;;;;;;;15.57;74.82;98961.94;5068479;28;19920;-79
2021/08/27 08:37:32;;;;;;;;;;;;;;;15.77;75.07;98955.47;5072221;28;19928;-79
2021/08/27 08:39:58;;;;;;;;;;;;;;;16.04;73.33;98964.31;5073594;28;19920;-79
2021/08/27 08:42:25;;;;;;;;;;;;;;;16.17;72.81;98959.75;5069172;28;19943;-79
2021/08/27 08:44:52;;;;;;;;;;;;;;;16.07;73.30;98968.50;5072011;28;19932;-79
2021/08/27 08:47:19;;;;;;;;;;;;;;;16.03;72.21;98968.13;5071843;28;20375;-81
2021/08/27 08:49:47;;;;;;;;;;;;;;;16.05;72.26;98971.47;5072396;28;20342;-79
2021/08/27 08:52:18;;;;;;;;;;;;;;;16.37;72.74;98970.53;5071333;28;19920;-79
2021/08/27 08:54:52;;;;;;;;;;;;;;;16.52;71.79;98967.41;5073146;28;19963;-79
2021/08/27 08:57:22;;;;;;;;;;;;;;;16.64;71.28;98968.31;5070003;28;19921;-79
2021/08/27 08:59:50;;;;;;;;;;;;;;;16.89;71.25;98964.66;5071920;28;19966;-79
2021/08/27 09:02:22;;;;;;;;;;;;;;;17.36;68.07;98964.03;5072676;28;19925;-79
2021/08/27 09:04:49;;;;;;;;;;;;;;;17.22;68.68;98960.63;5070239;28;19956;-80
2021/08/27 09:07:19;;;;;;;;;;;;;;;17.01;69.86;98970.22;5072151;28;20346;-80
2021/08/27 09:09:47;;;;;;;;;;;;;;;16.38;69.94;98974.94;5079890;28;19919;-80
2021/08/27 09:15:09;;;;;;;;;;;;;;;16.28;72.70;98973.56;5012264;28;19948;-78
2021/08/27 09:17:56;;;;;;;;;;;;;;;16.17;70.80;98979.81;5072413;28;20002;-78
2021/08/27 09:20:34;;;;;;;;;;;;;;;16.46;71.17;98966.41;5083320;23;19920;-79
2021/08/27 09:23:02;;;;;;;;;;;;;;;17.03;70.08;98973.59;5113013;28;19924;-79
2021/08/27 09:25:31;;;;;;;;;;;;;;;16.96;68.42;98977.22;5115819;27;19919;-79
2021/08/27 09:28:11;;;;;;;;;;;;;;;16.65;68.13;98975.50;5113243;28;19920;-80
2021/08/27 09:30:40;;;;;;;;;;;;;;;16.39;70.00;98985.69;5110232;27;19923;-79
2021/08/27 09:33:10;;;;;;;;;;;;;;;16.14;69.10;98983.00;5111703;28;20329;-79
2021/08/27 09:35:37;;;;;;;;;;;;;;;16.08;69.81;98976.50;5105692;28;19949;-79
2021/08/27 09:38:12;;;;;;;;;;;;;;;16.49;69.46;98985.16;5106386;28;19942;-78
2021/08/27 09:40:48;;;;;;;;;;;;;;;16.86;69.71;98973.34;5095015;28;20464;-78
2021/08/27 09:43:24;;;;;;;;;;;;;;;17.37;68.65;98972.03;5111997;28;19920;-78
2021/08/27 09:45:53;;;;;;;;;;;;;;;17.60;66.86;98968.53;5102864;28;19938;-78
2021/08/27 09:48:36;;;;;;;;;;;;;;;17.66;65.58;98973.06;5104915;28;20358;-78
2021/08/27 09:51:02;;;;;;;;;;;;;;;17.61;65.55;98972.09;5091485;28;19950;-78
2021/08/27 09:53:40;;;;;;;;;;;;;;;17.57;66.00;98971.75;5108544;28;19988;-78
2021/08/27 09:56:08;;;;;;;;;;;;;;;17.52;64.72;98974.34;5119406;28;19919;-78
2021/08/27 09:58:56;;;;;;;;;;;;;;;17.51;63.17;98973.50;5113232;28;20362;-78
2021/08/27 10:01:24;;;;;;;;;;;;;;;17.79;63.63;98966.50;5107453;28;19973;-78
2021/08/27 10:04:03;;;;;;;;;;;;;;;17.85;61.65;98971.09;5105796;28;19928;-79
2021/08/27 10:06:31;;;;;;;;;;;;;;;17.72;63.43;98973.19;5116690;28;20371;-79
2021/08/27 10:08:58;;;;;;;;;;;;;;;17.63;62.27;98965.31;5099739;28;19939;-78
2021/08/27 10:11:28;;;;;;;;;;;;;;;17.33;62.17;98971.66;5109774;28;19920;-78
2021/08/27 10:13:55;;;;;;;;;;;;;;;16.93;63.11;98972.22;5118501;28;19928;-78
2021/08/27 10:16:22;;;;;;;;;;;;;;;17.20;63.90;98976.53;5109123;28;19926;-79
2021/08/27 10:18:49;;;;;;;;;;;;;;;17.65;63.22;98976.88;5109082;27;19924;-79
2021/08/27 10:21:15;;;;;;;;;;;;;;;17.93;62.24;98967.19;5106004;27;19927;-79
2021/08/27 10:23:44;;;;;;;;;;;;;;;17.92;61.42;98964.66;5109681;28;19919;-79
2021/08/27 10:26:12;;;;;;;;;;;;;;;17.95;60.13;98962.25;5100739;28;19942;-78
2021/08/27 10:28:40;;;;;;;;;;;;;;;18.57;60.53;98961.75;5109063;28;19923;-79
2021/08/27 10:31:10;;;;;;;;;;;;;;;18.69;57.89;98952.63;5112999;28;19920;-79
2021/08/27 10:34:04;;;;;;;;;;;;;;;19.07;58.84;98946.56;5108823;28;19919;-79
2021/08/27 10:36:50;;;;;;;;;;;;;;;19.50;57.72;98944.31;5115742;28;19966;-79
2021/08/27 10:39:34;;;;;;;;;;;;;;;19.01;56.33;98955.78;5114247;28;19973;-79
2021/08/27 10:42:01;;;;;;;;;;;;;;;18.26;60.08;98951.13;5098648;28;19920;-79
2021/08/27 10:44:48;;;;;;;;;;;;;;;17.94;61.51;98954.25;5107562;28;19923;-79
2021/08/27 10:47:15;;;;;;;;;;;;;;;17.81;61.99;98958.03;5106777;28;19927;-78
2021/08/27 10:50:11;;;;;;;;;;;;;;;17.61;61.05;98959.19;5111234;28;19973;-78
2021/08/27 10:52:50;;;;;;;;;;;;;;;17.25;61.26;98961.03;5114763;28;19923;-78
2021/08/27 10:55:25;;;;;;;;;;;;;;;17.25;61.29;98958.28;5103728;28;19920;-78
2021/08/27 10:58:13;;;;;;;;;;;;;;;17.28;63.09;98960.56;5094677;28;19919;-78
2021/08/27 11:03:56;;;;;;;;;;;;;;;18.36;58.94;98946.69;5099056;28;20303;-79
2021/08/27 11:06:23;;;;;;;;;;;;;;;18.52;59.19;98947.06;5107411;28;19927;-79
2021/08/27 11:08:50;;;;;;;;;;;;;;;18.20;59.51;98942.78;5105897;28;19920;-78
2021/08/27 11:11:21;;;;;;;;;;;;;;;18.15;58.98;98945.41;5099210;28;20185;-79
2021/08/27 11:13:48;;;;;;;;;;;;;;;18.08;59.30;98952.94;5107857;28;19959;-80
2021/08/27 11:16:27;;;;;;;;;;;;;;;18.34;58.45;98945.28;5105388;28;20005;-78
2021/08/27 11:18:54;;;;;;;;;;;;;;;18.20;57.59;98941.91;5104880;28;19923;-78
2021/08/27 11:21:31;;;;;;;;;;;;;;;18.13;59.93;98949.47;5100602;28;19981;-78
2021/08/27 11:24:16;;;;;;;;;;;;;;;18.02;60.71;98962.13;5107774;28;19919;-78
2021/08/27 11:26:43;;;;;;;;;;;;;;;17.96;59.69;98963.09;5104266;28;19928;-79
2021/08/27 11:29:32;;;;;;;;;;;;;;;17.73;61.03;98964.72;5104547;28;19927;-79
2021/08/27 11:32:07;;;;;;;;;;;;;;;17.79;62.23;98961.00;5099227;28;19928;-78
2021/08/27 11:34:49;;;;;;;;;;;;;;;17.87;62.43;98952.44;5107736;28;19930;-78
2021/08/27 11:37:16;;;;;;;;;;;;;;;18.02;60.99;98956.63;5105021;28;19928;-79
2021/08/27 11:39:43;;;;;;;;;;;;;;;17.85;61.84;98961.97;5103052;28;19930;-79
2021/08/27 11:42:09;;;;;;;;;;;;;;;18.11;63.36;98962.63;5105949;28;19934;-79
2021/08/27 11:44:42;;;;;;;;;;;;;;;18.09;62.28;98962.84;5105926;28;19927;-78
2021/08/27 11:47:11;;;;;;;;;;;;;;;18.28;61.93;98966.34;5109940;28;19985;-78
2021/08/27 11:49:41;;;;;;;;;;;;;;;18.03;62.13;98969.31;5109142;28;19920;-79
2021/08/27 11:52:15;;;;;;;;;;;;;;;18.28;61.35;98974.59;5105152;28;20543;-79
2021/08/27 11:54:42;;;;;;;;;;;;;;;18.10;62.00;98977.47;5111553;28;20382;-79
2021/08/27 11:57:21;;;;;;;;;;;;;;;17.87;62.54;98981.84;5104352;28;19923;-79
2021/08/27 11:59:48;;;;;;;;;;;;;;;17.90;63.10;98986.91;5114073;28;19965;-79
2021/08/27 12:02:17;;;;;;;;;;;;;;;17.92;62.75;98981.16;5103849;28;19931;-79
2021/08/27 12:04:43;;;;;;;;;;;;;;;17.92;60.96;98986.66;5110982;28;19924;-82
2021/08/27 12:07:11;;;;;;;;;;;;;;;17.73;62.18;98985.88;5102034;28;19958;-80
2021/08/27 12:09:38;;;;;;;;;;;;;;;18.14;62.33;98993.25;5113075;28;19930;-80
2021/08/27 12:12:08;;;;;;;;;;;;;;;18.02;63.88;98990.50;5109466;28;19924;-79
2021/08/27 12:14:49;;;;;;;;;;;;;;;17.91;64.66;98987.72;5109103;28;19920;-79
2021/08/27 12:17:22;;;;;;;;;;;;;;;18.07;64.65;98994.44;5101043;28;19974;-79
2021/08/27 12:19:48;;;;;;;;;;;;;;;18.08;64.50;98988.72;5115156;28;19927;-79
2021/08/27 12:22:17;;;;;;;;;;;;;;;18.09;63.94;98990.38;5115191;28;19927;-79
2021/08/27 12:24:43;;;;;;;;;;;;;;;18.30;62.48;98986.19;5115267;28;19926;-79
2021/08/27 12:27:10;;;;;;;;;;;;;;;18.29;62.22;98987.28;5113795;28;19936;-79
2021/08/27 12:29:37;;;;;;;;;;;;;;;18.34;61.61;98976.38;5099139;28;19966;-80
2021/08/27 12:32:03;;;;;;;;;;;;;;;18.10;63.03;98980.22;5113688;28;19919;-78
2021/08/27 12:34:31;;;;;;;;;;;;;;;18.29;60.71;98984.53;5099435;27;20306;-80
2021/08/27 12:36:58;;;;;;;;;;;;;;;18.43;60.93;98981.50;5081492;28;19970;-79
2021/08/27 12:39:25;;;;;;;;;;;;;;;18.50;60.65;98969.31;5082308;28;19929;-79
2021/08/27 12:41:51;;;;;;;;;;;;;;;18.78;60.84;98970.44;5078285;28;19924;-79
2021/08/27 12:44:18;;;;;;;;;;;;;;;18.59;60.38;98975.25;5080577;28;19924;-79
2021/08/27 12:46:48;;;;;;;;;;;;;;;18.46;59.31;98972.78;5091341;28;19927;-80
2021/08/27 12:49:15;;;;;;;;;;;;;;;18.54;59.95;98970.47;5076107;28;19921;-79
2021/08/27 12:51:44;;;;;;;;;;;;;;;18.58;58.72;98962.59;5081664;28;19930;-80
2021/08/27 12:54:15;;;;;;;;;;;;;;;18.87;57.18;98966.25;5084572;28;19924;-79
2021/08/27 12:56:42;;;;;;;;;;;;;;;19.19;57.70;98963.00;5080024;28;19920;-80
2021/08/27 12:59:16;;;;;;;;;;;;;;;19.36;57.08;98964.97;5083035;28;20333;-79
2021/08/27 13:01:42;;;;;;;;;;;;;;;19.44;56.19;98965.41;5090815;28;19989;-80
2021/08/27 13:04:09;;;;;;;;;;;;;;;19.67;56.63;98969.13;5091688;28;19920;-79
2021/08/27 13:06:36;;;;;;;;;;;;;;;19.75;55.90;98960.47;5090623;28;19920;-79